Time;durP1;ratioP1;P1;durP2;ratioP2;P2;SDS_P1;SDS_P2;PMS_P1;PMS_P2;Temp;Humidity;BMP_temperature;BMP_pressure;BME280_temperature;BME280_humidity;BME280_pressure;Samples;Min_cycle;Max_cycle;Signal;HPM_P1;HPM_P2
2021/09/25 00:01:19;;;;;;;0.70;0.70;;;21.50;50.60;;;25.51;33.85;100921.78;5114768;28;20055;-11
2021/09/25 00:03:45;;;;;;;0.80;0.80;;;21.50;50.70;;;25.51;33.60;100927.13;5114926;28;20043;-11
2021/09/25 00:06:12;;;;;;;0.73;0.73;;;21.50;50.70;;;25.52;33.68;100927.00;5114649;28;20051;-11
2021/09/25 00:08:38;;;;;;;0.70;0.70;;;21.50;50.70;;;25.49;33.93;100919.22;5114417;28;20075;-11
2021/09/25 00:11:04;;;;;;;0.95;0.75;;;21.50;50.60;;;25.52;33.70;100928.81;5096362;28;20054;-12
2021/09/25 00:13:30;;;;;;;0.70;0.63;;;21.50;50.60;;;25.52;33.81;100923.47;5114458;28;20044;-12
2021/09/25 00:15:56;;;;;;;0.77;0.75;;;21.50;50.70;;;25.52;33.78;100923.47;5114474;28;20044;-12
2021/09/25 00:18:22;;;;;;;0.63;0.63;;;21.50;51.20;;;25.53;33.80;100922.50;5114331;28;20051;-12
2021/09/25 00:20:48;;;;;;;1.25;0.80;;;21.50;50.70;;;25.50;33.80;100920.06;5114350;28;20100;-12
2021/09/25 00:23:14;;;;;;;1.00;0.80;;;21.50;50.70;;;25.51;33.76;100916.44;5114395;28;20055;-11
2021/09/25 00:25:40;;;;;;;0.85;0.80;;;21.50;50.70;;;25.52;33.72;100928.81;5114628;28;20056;-11
2021/09/25 00:28:05;;;;;;;1.15;0.88;;;21.50;50.70;;;25.52;34.05;100923.47;5114252;28;20063;-12
2021/09/25 00:30:31;;;;;;;0.95;0.80;;;21.50;50.70;;;25.49;33.86;100921.91;5114187;28;20485;-12
2021/09/25 00:32:57;;;;;;;0.60;0.60;;;21.50;50.60;;;25.50;33.90;100928.94;5113868;28;20491;-11
2021/09/25 00:35:23;;;;;;;0.60;0.60;;;21.50;50.80;;;25.52;33.67;100927.00;5113847;28;20047;-12
2021/09/25 00:37:49;;;;;;;0.70;0.70;;;21.50;50.70;;;25.51;33.78;100921.78;5114094;28;20075;-12
2021/09/25 00:40:17;;;;;;;1.17;1.02;;;21.50;50.60;;;25.50;33.76;100926.28;5113886;28;20040;-12
2021/09/25 00:42:44;;;;;;;0.70;0.70;;;21.50;50.60;;;25.50;33.70;100923.59;5113904;28;20051;-11
2021/09/25 00:45:13;;;;;;;0.70;0.70;;;21.60;50.70;;;25.50;33.81;100931.63;5113981;28;20067;-12
2021/09/25 00:47:39;;;;;;;0.60;0.60;;;21.50;50.60;;;25.49;33.76;100918.34;5114260;28;20483;-12
2021/09/25 00:50:07;;;;;;;0.60;0.60;;;21.50;50.60;;;25.46;33.83;100908.75;5113936;28;20043;-12
2021/09/25 00:52:33;;;;;;;0.70;0.60;;;21.50;50.60;;;25.50;33.73;100934.31;5113833;28;20055;-12
2021/09/25 00:54:59;;;;;;;0.80;0.80;;;21.60;50.60;;;25.47;33.84;100923.84;5112492;28;20048;-12
2021/09/25 00:57:25;;;;;;;0.95;0.93;;;21.60;50.60;;;25.49;33.91;100929.94;5114430;28;20051;-12
2021/09/25 00:59:52;;;;;;;0.98;0.90;;;21.50;51.10;;;25.49;33.84;100927.25;5113669;28;20061;-11
2021/09/25 01:02:18;;;;;;;0.98;0.88;;;21.60;50.70;;;25.48;33.89;100924.72;5114307;28;20055;-11
2021/09/25 01:04:45;;;;;;;0.60;0.60;;;21.50;50.70;;;25.49;33.80;100929.94;5113785;28;20427;-12
2021/09/25 01:07:11;;;;;;;0.77;0.68;;;21.50;50.60;;;25.51;33.76;100929.81;5113756;28;20056;-12
2021/09/25 01:09:37;;;;;;;0.75;0.70;;;21.60;50.60;;;25.49;33.88;100931.75;5114020;28;20082;-12
2021/09/25 01:12:04;;;;;;;1.25;0.80;;;21.50;50.60;;;25.50;33.72;100938.81;5113875;28;20081;-12
2021/09/25 01:14:31;;;;;;;0.95;0.80;;;21.50;50.70;;;25.51;33.77;100936.00;5113349;28;20483;-11
2021/09/25 01:17:12;;;;;;;0.90;0.90;;;21.50;50.70;;;25.49;33.87;100945.13;5113485;28;20492;-12
2021/09/25 01:19:42;;;;;;;0.70;0.70;;;21.50;50.80;;;25.47;33.95;100933.69;5113161;28;20125;-12
2021/09/25 01:22:09;;;;;;;0.70;0.70;;;21.50;50.70;;;25.49;33.84;100940.66;5113474;28;20039;-12
2021/09/25 01:24:36;;;;;;;0.60;0.60;;;21.50;50.70;;;25.48;33.87;100933.56;5113293;28;20113;-12
2021/09/25 01:27:03;;;;;;;0.50;0.50;;;21.50;50.70;;;25.48;33.73;100936.25;5113353;28;20105;-11
2021/09/25 01:29:29;;;;;;;1.02;0.73;;;21.60;50.60;;;25.48;33.83;100935.41;5113153;28;20046;-12
2021/09/25 01:31:55;;;;;;;1.17;0.82;;;21.60;50.60;;;25.49;33.81;100937.09;5113201;28;20047;-11
2021/09/25 01:34:21;;;;;;;0.70;0.70;;;21.50;50.60;;;25.46;33.81;100934.66;5113303;28;20080;-12
2021/09/25 01:36:48;;;;;;;0.80;0.70;;;21.50;50.70;;;25.49;33.88;100943.31;5113243;28;20054;-12
2021/09/25 01:39:15;;;;;;;0.98;0.80;;;21.50;50.70;;;25.47;33.82;100945.25;5092896;28;20491;-12
2021/09/25 01:41:41;;;;;;;0.80;0.80;;;21.50;50.70;;;25.49;33.68;100939.78;5113181;28;20049;-11
2021/09/25 01:44:07;;;;;;;0.60;0.60;;;21.50;50.70;;;25.46;34.06;100951.59;5113126;28;20047;-12
2021/09/25 01:46:33;;;;;;;0.70;0.70;;;21.50;50.70;;;25.48;33.82;100952.31;5112837;28;20047;-12
2021/09/25 01:48:58;;;;;;;1.23;0.65;;;21.50;50.70;;;25.49;34.02;100945.13;5113064;28;20130;-11
2021/09/25 01:51:24;;;;;;;0.55;0.55;;;21.50;50.60;;;25.47;33.98;100937.22;5112553;28;20112;-12
2021/09/25 01:53:50;;;;;;;0.90;0.70;;;21.60;50.60;;;25.47;33.92;100950.59;5112965;28;20044;-12
2021/09/25 01:56:16;;;;;;;0.75;0.60;;;21.60;50.70;;;25.46;33.83;100948.03;5113419;28;20050;-12
2021/09/25 01:58:43;;;;;;;0.63;0.63;;;21.50;50.60;;;25.47;33.79;100955.97;5112838;28;20516;-11
2021/09/25 02:01:10;;;;;;;1.30;0.98;;;21.50;50.70;;;25.48;33.95;100956.84;5112890;28;20047;-11
2021/09/25 02:03:36;;;;;;;0.77;0.70;;;21.50;50.70;;;25.46;33.85;100954.28;5113144;28;20070;-12
2021/09/25 02:06:04;;;;;;;1.00;0.80;;;21.50;50.70;;;25.45;33.97;100949.03;5113202;28;20050;-12
2021/09/25 02:08:30;;;;;;;0.77;0.70;;;21.50;50.70;;;25.49;33.91;100956.72;5112761;28;20054;-11
2021/09/25 02:10:57;;;;;;;0.80;0.80;;;21.50;50.70;;;25.46;33.92;100948.03;5112846;28;20043;-11
2021/09/25 02:13:22;;;;;;;1.00;0.90;;;21.50;50.70;;;25.48;33.79;100956.84;5113389;28;20391;-12
2021/09/25 02:15:48;;;;;;;1.00;0.88;;;21.50;50.70;;;25.49;33.76;100956.72;5113332;28;20043;-11
2021/09/25 02:18:14;;;;;;;1.08;0.98;;;21.50;50.70;;;25.48;33.91;100955.00;5111214;28;20052;-12
2021/09/25 02:20:40;;;;;;;1.25;0.80;;;21.50;50.70;;;25.48;33.99;100959.50;5112639;28;20495;-12
2021/09/25 02:23:06;;;;;;;0.90;0.82;;;21.50;50.80;;;25.48;33.85;100954.16;5112641;28;20048;-11
2021/09/25 02:25:32;;;;;;;0.85;0.85;;;21.50;50.80;;;25.46;33.85;100959.63;5112876;28;20447;-12
2021/09/25 02:27:57;;;;;;;0.70;0.70;;;21.50;50.70;;;25.48;33.94;100956.84;5112551;28;20051;-12
2021/09/25 02:30:23;;;;;;;0.80;0.80;;;21.50;50.70;;;25.47;33.83;100955.13;5092627;28;20052;-12
2021/09/25 02:32:49;;;;;;;0.70;0.70;;;21.50;50.80;;;25.48;33.85;100956.84;5112613;28;20051;-12
2021/09/25 02:35:18;;;;;;;1.20;1.00;;;21.50;50.80;;;25.44;33.98;100953.56;5094285;28;20148;-12
2021/09/25 02:37:44;;;;;;;0.82;0.80;;;21.50;50.70;;;25.46;33.79;100956.94;5112698;28;20040;-12
2021/09/25 02:40:11;;;;;;;0.80;0.80;;;21.50;50.70;;;25.46;33.89;100959.63;5111119;28;20493;-12
2021/09/25 02:42:38;;;;;;;0.80;0.80;;;21.50;50.80;;;25.46;33.88;100959.63;5112475;28;20051;-12
2021/09/25 02:45:05;;;;;;;0.70;0.70;;;21.50;50.80;;;25.48;33.94;100967.53;5112284;28;20039;-12
2021/09/25 02:47:30;;;;;;;0.75;0.70;;;21.50;50.80;;;25.47;33.99;100960.47;5112307;28;20043;-11
2021/09/25 02:49:56;;;;;;;0.80;0.80;;;21.50;50.80;;;25.48;33.90;100962.19;5112430;28;20054;-12
2021/09/25 02:52:22;;;;;;;0.73;0.70;;;21.50;50.80;;;25.48;33.88;100970.22;5112618;28;20047;-12
2021/09/25 02:54:48;;;;;;;0.75;0.75;;;21.50;50.80;;;25.48;33.90;100959.50;5112293;28;20086;-12
2021/09/25 02:57:13;;;;;;;1.00;0.88;;;21.50;50.80;;;25.45;33.93;100957.06;5113588;28;20127;-11
2021/09/25 02:59:39;;;;;;;0.80;0.80;;;21.40;50.80;;;25.48;33.88;100970.22;5115625;28;20048;-12
2021/09/25 03:02:05;;;;;;;0.80;0.80;;;21.50;50.80;;;25.47;33.91;100961.31;5115631;28;20449;-12
2021/09/25 03:04:31;;;;;;;1.02;0.80;;;21.50;50.80;;;25.46;33.95;100969.47;5115675;28;20051;-12
2021/09/25 03:06:57;;;;;;;0.80;0.80;;;21.50;50.70;;;25.46;33.83;100964.97;5115567;28;20088;-12
2021/09/25 03:09:22;;;;;;;0.80;0.80;;;21.50;50.70;;;25.46;33.85;100961.44;5115526;28;20059;-12
2021/09/25 03:11:49;;;;;;;0.90;0.85;;;21.50;50.70;;;25.46;33.95;100961.44;5097688;28;20040;-12
2021/09/25 03:14:15;;;;;;;0.80;0.80;;;21.50;50.80;;;25.47;33.80;100966.66;5115340;28;20066;-11
2021/09/25 03:16:41;;;;;;;0.70;0.70;;;21.50;50.80;;;25.45;34.06;100971.28;5115437;28;20507;-12
2021/09/25 03:19:07;;;;;;;0.93;0.80;;;21.50;50.90;;;25.45;34.07;100967.78;5115557;28;20055;-12
2021/09/25 03:21:33;;;;;;;0.80;0.80;;;21.50;50.80;;;25.46;33.96;100966.78;5114966;28;20079;-12
2021/09/25 03:23:59;;;;;;;0.73;0.73;;;21.50;50.80;;;25.44;34.03;100972.28;5115335;28;20054;-12
2021/09/25 03:26:25;;;;;;;0.75;0.70;;;21.50;50.80;;;25.45;33.88;100970.44;5114998;28;20112;-12
2021/09/25 03:28:50;;;;;;;0.70;0.70;;;21.50;50.70;;;25.45;33.89;100965.94;5114998;28;20395;-12
2021/09/25 03:31:16;;;;;;;0.80;0.80;;;21.50;50.70;;;25.44;33.97;100976.78;5114963;28;20052;-12
2021/09/25 03:33:42;;;;;;;0.70;0.70;;;21.50;50.70;;;25.44;34.05;100966.06;5115384;28;20109;-12
2021/09/25 03:36:08;;;;;;;0.80;0.80;;;21.50;50.70;;;25.46;33.91;100966.78;5115716;28;20047;-12
2021/09/25 03:38:33;;;;;;;1.00;0.90;;;21.50;50.70;;;25.45;34.05;100973.97;5114987;28;20050;-12
2021/09/25 03:41:00;;;;;;;0.77;0.70;;;21.50;50.80;;;25.47;33.90;100973.84;5114871;28;20047;-12
2021/09/25 03:43:26;;;;;;;1.00;0.90;;;21.50;50.80;;;25.46;33.86;100977.50;5096673;28;20142;-11
2021/09/25 03:45:52;;;;;;;0.90;0.90;;;21.50;51.00;;;25.45;33.96;100981.16;5115029;28;20475;-12
2021/09/25 03:48:18;;;;;;;0.85;0.73;;;21.50;50.90;;;25.45;34.10;100982.00;5114961;28;20063;-12
2021/09/25 03:50:44;;;;;;;1.00;0.90;;;21.50;50.90;;;25.46;34.02;100985.53;5114725;28;20139;-12
2021/09/25 03:53:10;;;;;;;1.00;0.90;;;21.50;50.90;;;25.44;33.92;100982.13;5114853;28;20096;-12
2021/09/25 03:55:35;;;;;;;1.00;0.90;;;21.50;50.80;;;25.43;33.85;100983.13;5114857;28;20385;-11
2021/09/25 03:58:01;;;;;;;1.17;0.90;;;21.50;50.80;;;25.46;33.97;100986.41;5114998;28;20090;-11
2021/09/25 04:00:27;;;;;;;0.75;0.75;;;21.50;50.70;;;25.46;33.92;100985.53;5114960;28;20050;-12
2021/09/25 04:02:54;;;;;;;0.70;0.70;;;21.50;50.50;;;25.47;33.95;100990.75;5114790;28;20052;-12
2021/09/25 04:05:21;;;;;;;1.33;0.98;;;21.50;50.50;;;25.45;33.83;100979.31;5114676;28;20574;-12
2021/09/25 04:07:48;;;;;;;0.70;0.70;;;21.50;50.60;;;25.45;33.94;100986.50;5114624;28;20499;-12
2021/09/25 04:10:15;;;;;;;1.10;0.90;;;21.50;51.30;;;25.43;33.94;100975.94;5114524;28;20062;-12
2021/09/25 04:12:42;;;;;;;0.80;0.80;;;21.50;50.90;;;25.45;33.85;100979.31;5094987;28;20048;-12
2021/09/25 04:15:10;;;;;;;0.70;0.70;;;21.50;50.90;;;25.47;33.92;100979.22;5114510;28;20055;-12
2021/09/25 04:17:36;;;;;;;1.13;0.88;;;21.50;50.90;;;25.49;33.88;100977.25;5114463;28;20181;-12
2021/09/25 04:20:05;;;;;;;0.77;0.77;;;21.50;50.70;;;25.48;33.94;100981.75;5095361;28;20092;-11
2021/09/25 04:22:31;;;;;;;0.80;0.80;;;21.60;50.50;;;25.49;33.83;100977.25;5114369;28;20048;-12
2021/09/25 04:24:56;;;;;;;0.65;0.65;;;21.70;50.30;;;25.47;33.78;100972.03;5114373;28;20050;-12
2021/09/25 04:27:22;;;;;;;0.85;0.85;;;21.70;50.20;;;25.48;33.95;100973.72;5114634;28;20059;-11
2021/09/25 04:29:48;;;;;;;0.75;0.75;;;21.70;50.30;;;25.49;33.89;100979.94;5114261;28;20051;-11
2021/09/25 04:32:14;;;;;;;0.73;0.73;;;21.60;50.40;;;25.50;33.83;100987.84;5114288;28;20093;-12
2021/09/25 04:34:40;;;;;;;0.75;0.70;;;21.60;50.50;;;25.52;33.90;100988.56;5114145;28;20402;-12
2021/09/25 04:37:06;;;;;;;0.60;0.60;;;21.50;50.70;;;25.52;33.88;100991.25;5114111;28;20078;-12
2021/09/25 04:39:31;;;;;;;0.68;0.68;;;21.50;50.70;;;25.53;33.90;100994.78;5114307;28;20058;-11
2021/09/25 04:41:57;;;;;;;0.82;0.82;;;21.50;50.70;;;25.54;33.95;100992.97;5114225;28;20054;-12
2021/09/25 04:44:23;;;;;;;0.80;0.80;;;21.50;50.70;;;25.56;33.91;101005.25;5114003;28;20047;-12
2021/09/25 04:46:49;;;;;;;0.88;0.80;;;21.50;50.70;;;25.58;33.79;101002.47;5114047;28;20048;-12
2021/09/25 04:49:16;;;;;;;0.60;0.60;;;21.50;50.80;;;25.54;33.98;101001.84;5113700;28;20043;-12
2021/09/25 04:51:43;;;;;;;0.80;0.70;;;21.50;50.90;;;25.57;33.89;101012.31;5113852;28;20052;-12
2021/09/25 04:54:09;;;;;;;0.80;0.73;;;21.50;50.90;;;25.57;33.93;101012.31;5112505;28;20380;-12
2021/09/25 04:56:35;;;;;;;0.93;0.65;;;21.50;50.80;;;25.55;33.83;101006.22;5113455;28;20047;-11
2021/09/25 04:59:01;;;;;;;0.80;0.80;;;21.50;50.90;;;25.57;33.95;101006.09;5113542;28;20047;-11
2021/09/25 05:01:27;;;;;;;1.55;0.90;;;21.50;50.70;;;25.59;33.85;101012.19;5114082;28;20081;-12
2021/09/25 05:03:52;;;;;;;0.90;0.60;;;21.50;50.70;;;25.59;33.85;101009.50;5113902;28;20040;-12
2021/09/25 05:06:18;;;;;;;0.73;0.73;;;21.50;50.80;;;25.58;33.88;101011.34;5113476;28;20104;-12
2021/09/25 05:08:44;;;;;;;0.70;0.68;;;21.50;50.70;;;25.57;33.79;101014.97;5113491;28;20051;-12
2021/09/25 05:11:10;;;;;;;0.88;0.88;;;21.50;50.70;;;25.59;33.84;101009.50;5113643;28;20098;-12
2021/09/25 05:13:36;;;;;;;0.98;0.70;;;21.60;50.70;;;25.61;33.79;101011.09;5113622;28;20090;-12
2021/09/25 05:16:02;;;;;;;0.77;0.77;;;21.60;50.70;;;25.60;33.74;101008.53;5114059;28;20052;-12
2021/09/25 05:18:28;;;;;;;0.70;0.70;;;21.60;50.60;;;25.60;33.74;101011.22;5113952;28;20056;-12
2021/09/25 05:20:53;;;;;;;0.70;0.70;;;21.70;50.40;;;25.61;33.75;101015.59;5112949;28;20384;-12
2021/09/25 05:23:20;;;;;;;0.70;0.70;;;21.80;50.20;;;25.63;33.80;101027.06;5113665;28;20097;-12
2021/09/25 05:25:46;;;;;;;0.60;0.60;;;21.80;50.10;;;25.61;33.70;101024.50;5113397;28;20052;-12
2021/09/25 05:28:12;;;;;;;0.70;0.70;;;21.90;50.00;;;25.63;33.72;101029.72;5113552;28;20506;-12
2021/09/25 05:30:37;;;;;;;1.63;0.80;;;21.90;50.00;;;25.63;33.62;101027.88;5112039;28;20052;-12
2021/09/25 05:33:06;;;;;;;0.98;0.80;;;21.90;49.90;;;25.62;33.57;101028.00;5113235;28;20440;-11
2021/09/25 05:35:32;;;;;;;0.60;0.60;;;21.90;49.90;;;25.64;33.61;101028.72;5094964;28;20047;-11
2021/09/25 05:37:58;;;;;;;0.63;0.63;;;21.90;49.90;;;25.61;33.80;101029.84;5113117;28;20086;-12
2021/09/25 05:40:24;;;;;;;0.75;0.75;;;21.90;49.90;;;25.62;33.73;101036.03;5113199;28;20505;-12
2021/09/25 05:42:50;;;;;;;0.60;0.60;;;21.90;49.90;;;25.65;33.69;101038.50;5113171;28;20047;-12
2021/09/25 05:45:18;;;;;;;0.70;0.70;;;21.90;50.00;;;25.64;33.50;101034.97;5113133;28;20055;-12
2021/09/25 05:47:45;;;;;;;0.70;0.70;;;21.90;50.00;;;25.65;33.61;101027.78;5113029;28;20086;-11
2021/09/25 05:50:13;;;;;;;0.80;0.80;;;21.90;49.90;;;25.64;33.79;101018.91;5113263;28;20417;-11
2021/09/25 05:52:39;;;;;;;0.70;0.70;;;21.90;49.90;;;25.65;33.54;101027.78;5113124;28;20058;-12
2021/09/25 05:55:07;;;;;;;0.65;0.65;;;21.90;49.90;;;25.64;33.81;101040.31;5113014;28;20047;-12
2021/09/25 05:57:33;;;;;;;1.05;0.60;;;21.80;49.90;;;25.63;33.68;101037.75;5113040;28;20112;-12
2021/09/25 05:59:59;;;;;;;1.00;0.98;;;21.90;49.90;;;25.64;33.89;101040.31;5112723;28;20403;-12
2021/09/25 06:02:25;;;;;;;0.50;0.50;;;21.90;49.90;;;25.63;33.71;101045.78;5113328;28;20044;-11
2021/09/25 06:04:51;;;;;;;0.98;0.90;;;21.90;49.90;;;25.64;33.61;101055.50;5112983;28;20048;-12
2021/09/25 06:07:18;;;;;;;0.65;0.65;;;21.80;49.90;;;25.65;33.81;101058.06;5113067;28;20055;-11
2021/09/25 06:09:44;;;;;;;0.70;0.70;;;21.80;50.00;;;25.65;33.61;101062.59;5093251;28;20131;-12
2021/09/25 06:12:10;;;;;;;1.00;0.80;;;21.80;50.10;;;25.63;33.64;101068.06;5112888;28;20051;-11
2021/09/25 06:14:37;;;;;;;1.05;0.90;;;21.80;50.60;;;25.61;33.70;101056.63;5112947;28;20047;-12
2021/09/25 06:17:04;;;;;;;0.70;0.70;;;21.80;50.10;;;25.65;33.90;101059.91;5112800;28;20055;-12
2021/09/25 06:19:30;;;;;;;0.52;0.52;;;21.80;50.00;;;25.63;33.71;101049.31;5092937;28;20086;-12
2021/09/25 06:21:56;;;;;;;0.73;0.73;;;21.80;50.10;;;25.68;33.64;101057.00;5112702;28;20130;-11
2021/09/25 06:24:22;;;;;;;0.75;0.68;;;21.80;50.10;;;25.68;33.56;101059.66;5112954;28;20044;-12
2021/09/25 06:26:48;;;;;;;1.48;1.00;;;21.80;50.00;;;25.66;33.59;101057.13;5112660;28;20406;-11
2021/09/25 06:29:15;;;;;;;0.85;0.80;;;21.80;50.00;;;25.65;33.68;101050.03;5094186;28;20044;-12
2021/09/25 06:31:41;;;;;;;0.57;0.57;;;21.80;50.10;;;25.67;33.60;101050.75;5113182;28;20042;-12
2021/09/25 06:34:07;;;;;;;0.70;0.70;;;21.80;50.00;;;25.70;33.62;101060.41;5116393;28;20059;-12
2021/09/25 06:36:34;;;;;;;0.60;0.60;;;21.80;50.10;;;25.70;33.58;101071.94;5116231;28;20058;-12
2021/09/25 06:39:01;;;;;;;0.77;0.70;;;21.80;50.10;;;25.69;33.49;101066.72;5115993;28;20100;-12
2021/09/25 06:41:27;;;;;;;0.80;0.80;;;21.80;50.00;;;25.70;33.63;101082.66;5115636;28;20051;-12
2021/09/25 06:43:53;;;;;;;0.82;0.70;;;21.90;50.10;;;25.69;33.54;101072.94;5115952;28;20483;-12
2021/09/25 06:46:18;;;;;;;0.77;0.77;;;21.80;50.10;;;25.73;33.66;101081.59;5115628;28;20138;-12
2021/09/25 06:48:47;;;;;;;0.80;0.70;;;21.80;50.10;;;25.74;33.62;101093.13;5115878;28;20060;-12
2021/09/25 06:51:15;;;;;;;0.70;0.70;;;21.80;50.10;;;25.72;33.60;101093.25;5115835;28;20050;-12
2021/09/25 06:53:41;;;;;;;0.93;0.88;;;21.80;50.20;;;25.70;33.69;101089.84;5115832;28;20054;-12
2021/09/25 06:56:06;;;;;;;0.80;0.80;;;21.80;50.20;;;25.72;33.56;101093.25;5116389;28;20380;-12
2021/09/25 06:58:32;;;;;;;0.77;0.70;;;21.80;50.20;;;25.72;33.61;101093.25;5115698;28;20104;-12
2021/09/25 07:00:58;;;;;;;0.70;0.70;;;21.80;50.30;;;25.73;33.57;101105.69;5116251;28;20047;-12
2021/09/25 07:03:24;;;;;;;0.80;0.80;;;21.80;50.20;;;25.73;33.54;101107.50;5115688;28;20205;-12
2021/09/25 07:05:50;;;;;;;0.63;0.60;;;21.80;50.20;;;25.74;33.54;101109.22;5115657;28;20077;-12
2021/09/25 07:08:15;;;;;;;0.80;0.80;;;21.80;50.10;;;25.71;33.57;101104.97;5115427;28;20063;-11
2021/09/25 07:10:41;;;;;;;0.85;0.75;;;21.80;50.20;;;25.72;33.51;101105.81;5115556;28;20055;-11
2021/09/25 07:13:07;;;;;;;0.75;0.75;;;21.80;50.20;;;25.72;33.54;101101.28;5115562;28;20043;-11
2021/09/25 07:15:33;;;;;;;0.60;0.60;;;21.80;50.10;;;25.73;33.53;101100.34;5115495;28;20052;-11
2021/09/25 07:17:59;;;;;;;0.65;0.60;;;21.90;50.00;;;25.71;33.54;101094.25;5115196;28;20054;-12
2021/09/25 07:20:25;;;;;;;0.70;0.70;;;21.90;50.00;;;25.73;33.56;101108.38;5097082;28;20043;-12
2021/09/25 07:22:51;;;;;;;0.85;0.85;;;21.90;50.00;;;25.74;33.64;101110.06;5115255;28;20109;-12
2021/09/25 07:25:22;;;;;;;0.60;0.60;;;21.90;49.90;;;25.72;33.54;101097.78;5115362;28;20066;-12
2021/09/25 07:27:49;;;;;;;0.60;0.60;;;21.90;49.90;;;25.80;33.52;101114.94;5115314;28;20475;-12
2021/09/25 07:30:15;;;;;;;0.63;0.63;;;21.90;49.90;;;25.75;33.50;101119.81;5095898;28;20135;-12
2021/09/25 07:32:41;;;;;;;0.77;0.75;;;21.90;49.90;;;25.77;33.49;101125.03;5115540;28;20043;-12
2021/09/25 07:35:09;;;;;;;0.80;0.73;;;21.90;49.80;;;25.74;33.55;101115.41;5115452;28;20044;-12
2021/09/25 07:37:34;;;;;;;0.63;0.63;;;21.90;49.70;;;25.77;33.61;101125.03;5115165;28;20075;-11
2021/09/25 07:40:05;;;;;;;0.65;0.65;;;22.00;50.30;;;25.74;33.59;101128.78;5114795;28;20055;-12
2021/09/25 07:42:31;;;;;;;0.70;0.70;;;22.00;49.80;;;25.76;33.55;101123.31;5114945;28;20104;-12
2021/09/25 07:44:57;;;;;;;0.90;0.90;;;22.00;49.70;;;25.79;33.54;101144.50;5115038;28;20451;-12
2021/09/25 07:47:24;;;;;;;0.65;0.65;;;22.00;49.70;;;25.75;33.63;101138.56;5115025;28;20048;-11
2021/09/25 07:49:49;;;;;;;0.73;0.73;;;22.00;49.60;;;25.80;33.56;101143.56;5114766;28;20063;-12
2021/09/25 07:52:16;;;;;;;0.70;0.70;;;22.10;49.60;;;25.80;33.49;101148.91;5114890;28;20395;-12
2021/09/25 07:54:43;;;;;;;0.80;0.80;;;22.10;49.60;;;25.82;33.51;101141.59;5114958;28;20046;-12
2021/09/25 07:57:09;;;;;;;0.60;0.60;;;22.10;49.60;;;25.82;33.35;101147.81;5114766;28;20047;-12
2021/09/25 07:59:35;;;;;;;0.60;0.60;;;22.10;49.50;;;25.78;33.64;101141.00;5114654;28;20039;-12
2021/09/25 08:02:01;;;;;;;0.75;0.75;;;22.10;49.50;;;25.80;33.49;101144.41;5114770;28;20055;-12
2021/09/25 08:04:27;;;;;;;0.90;0.90;;;22.10;49.50;;;25.79;33.66;101141.84;5114783;28;20044;-12
2021/09/25 08:06:53;;;;;;;0.70;0.70;;;22.10;49.40;;;25.80;33.68;101143.56;5115318;28;20051;-12
2021/09/25 08:09:20;;;;;;;0.77;0.77;;;22.10;49.50;;;25.83;33.46;101149.53;5114691;28;20055;-11
2021/09/25 08:11:47;;;;;;;0.80;0.80;;;22.10;49.50;;;25.81;33.50;101145.25;5114616;28;20048;-11
2021/09/25 08:14:13;;;;;;;0.70;0.70;;;22.10;49.40;;;25.84;33.48;101159.28;5114581;28;20377;-12
2021/09/25 08:16:39;;;;;;;0.90;0.90;;;22.10;49.40;;;25.83;33.48;101170.94;5114584;28;20051;-12
2021/09/25 08:19:05;;;;;;;0.80;0.80;;;22.20;49.40;;;25.84;33.41;101170.00;5114410;28;20403;-11
2021/09/25 08:21:31;;;;;;;0.77;0.77;;;22.10;49.30;;;25.85;33.53;101169.00;5114272;28;20051;-11
2021/09/25 08:23:57;;;;;;;0.55;0.55;;;22.20;49.40;;;25.86;33.50;101168.03;5114411;28;20077;-11
2021/09/25 08:26:22;;;;;;;0.90;0.70;;;22.20;49.40;;;25.88;33.63;101168.75;5114258;28;20082;-11
2021/09/25 08:28:48;;;;;;;0.70;0.70;;;22.20;49.30;;;25.88;33.43;101176.81;5114286;28;20043;-12
2021/09/25 08:31:15;;;;;;;0.70;0.70;;;22.20;49.30;;;25.89;33.41;101178.53;5114868;28;20050;-11
2021/09/25 08:33:41;;;;;;;0.70;0.70;;;22.20;49.30;;;25.90;33.37;101187.41;5114561;28;20047;-12
2021/09/25 08:36:06;;;;;;;0.82;0.70;;;22.20;49.30;;;25.89;33.51;101180.31;5114230;28;20044;-12
2021/09/25 08:38:33;;;;;;;0.90;0.73;;;22.20;49.20;;;25.91;33.38;101188.25;5114085;28;20048;-12
2021/09/25 08:40:59;;;;;;;0.63;0.60;;;22.20;49.30;;;25.93;33.37;101194.31;5114120;28;20052;-12
2021/09/25 08:43:28;;;;;;;0.75;0.75;;;22.20;49.30;;;25.90;33.42;101203.47;5114356;28;20510;-12
2021/09/25 08:46:01;;;;;;;0.70;0.70;;;22.20;49.20;;;25.94;33.40;101212.13;5094927;28;20075;-12
2021/09/25 08:48:29;;;;;;;0.70;0.70;;;22.20;49.20;;;25.96;33.30;101207.53;5095630;28;20122;-12
2021/09/25 08:50:56;;;;;;;0.80;0.80;;;22.20;49.20;;;25.96;33.34;101213.75;5114402;28;20044;-11
2021/09/25 08:53:22;;;;;;;0.77;0.77;;;22.20;49.20;;;25.97;33.33;101214.59;5114273;28;20131;-12
2021/09/25 08:55:48;;;;;;;0.65;0.65;;;22.20;49.50;;;25.97;33.31;101217.28;5112853;28;20043;-12
2021/09/25 08:58:14;;;;;;;0.77;0.77;;;22.20;49.20;;;25.97;33.35;101218.13;5113635;28;20450;-12
2021/09/25 09:00:46;;;;;;;0.80;0.80;;;22.20;49.30;;;25.98;33.21;101216.31;5113979;28;20067;-12
2021/09/25 09:03:25;;;;;;;0.82;0.80;;;22.20;49.30;;;25.99;33.28;101221.53;5113821;28;20039;-12
2021/09/25 09:05:53;;;;;;;0.60;0.60;;;22.20;49.20;;;25.98;33.25;101225.19;5113639;28;20048;-12
2021/09/25 09:08:22;;;;;;;1.13;1.02;;;22.20;49.20;;;25.97;33.30;101220.81;5113577;28;20483;-12
2021/09/25 09:10:48;;;;;;;0.82;0.82;;;22.30;49.20;;;25.98;33.24;101222.53;5114212;28;20122;-12
2021/09/25 09:13:15;;;;;;;0.70;0.70;;;22.30;49.20;;;25.98;33.30;101221.69;5113635;28;20058;-12
2021/09/25 09:15:42;;;;;;;0.70;0.70;;;22.30;49.10;;;26.02;33.29;101229.34;5095457;28;20101;-12
2021/09/25 09:18:17;;;;;;;0.70;0.70;;;22.30;49.10;;;26.01;33.35;101224.97;5095722;28;20361;-12
2021/09/25 09:21:16;;;;;;;0.70;0.70;;;22.30;49.10;;;26.03;33.26;101223.00;5113440;28;20048;-12
2021/09/25 09:23:59;;;;;;;0.60;0.60;;;22.30;49.20;;;26.02;33.35;101225.81;5113416;28;20440;-12
2021/09/25 09:26:32;;;;;;;0.80;0.80;;;22.20;49.20;;;26.02;33.16;101220.44;5113382;28;20083;-12
2021/09/25 09:29:00;;;;;;;0.90;0.90;;;22.30;49.30;;;26.03;33.23;101230.22;5113313;28;20051;-11
2021/09/25 09:31:27;;;;;;;0.63;0.63;;;22.20;49.20;;;26.03;33.44;101223.00;5113318;28;20484;-12
2021/09/25 09:33:57;;;;;;;0.70;0.65;;;22.30;49.20;;;26.04;33.28;101229.22;5113280;28;20048;-12
2021/09/25 09:36:35;;;;;;;0.70;0.70;;;22.30;49.10;;;26.04;33.25;101227.41;5113751;28;20052;-12
2021/09/25 09:39:11;;;;;;;0.63;0.63;;;22.30;49.10;;;26.03;33.28;101233.72;5112899;28;20380;-12
2021/09/25 09:41:44;;;;;;;0.80;0.70;;;22.30;49.10;;;26.07;33.14;101229.81;5113043;28;20051;-12
2021/09/25 09:44:26;;;;;;;0.80;0.80;;;22.30;49.00;;;26.09;33.20;101240.44;5113453;28;20043;-12
2021/09/25 09:46:55;;;;;;;1.08;0.90;;;22.40;49.00;;;26.13;33.21;101235.66;5094563;28;20456;-11
2021/09/25 09:49:28;;;;;;;0.77;0.77;;;22.30;48.90;;;26.10;33.36;101226.06;5113229;28;20090;-12
2021/09/25 09:52:09;;;;;;;0.70;0.70;;;22.30;49.00;;;26.13;33.38;101236.56;5113448;28;20164;-11
2021/09/25 09:54:46;;;;;;;0.70;0.70;;;22.30;49.10;;;26.14;33.08;101240.91;5113034;28;20098;-12
2021/09/25 09:57:20;;;;;;;0.85;0.85;;;22.30;49.20;;;26.14;33.09;101243.59;5113582;28;20086;-11
2021/09/25 09:59:49;;;;;;;0.60;0.60;;;22.30;49.20;;;26.15;33.09;101241.78;5112953;28;20495;-12
2021/09/25 10:02:15;;;;;;;0.80;0.80;;;22.30;49.10;;;26.14;33.13;101240.91;5113009;28;20046;-12
2021/09/25 10:04:43;;;;;;;0.82;0.82;;;22.30;49.00;;;26.15;33.08;101241.78;5112951;28;20058;-12
2021/09/25 10:07:09;;;;;;;0.80;0.80;;;22.30;48.90;;;26.14;33.04;101245.44;5115755;28;20085;-12
2021/09/25 10:09:37;;;;;;;0.80;0.80;;;22.30;49.10;;;26.11;33.16;101238.50;5116557;28;20055;-12
2021/09/25 10:12:16;;;;;;;0.70;0.70;;;22.30;49.20;;;26.12;33.16;101247.38;5116429;28;20070;-12